Time;durP1;ratioP1;P1;durP2;ratioP2;P2;SDS_P1;SDS_P2;PMS_P1;PMS_P2;Temp;Humidity;BMP_temperature;BMP_pressure;BME280_temperature;BME280_humidity;BME280_pressure;Samples;Min_cycle;Max_cycle;Signal;HPM_P1;HPM_P2
2022/03/17 00:02:17;;;;;;;19.48;7.07;;;;;;;-10.20;46.78;101276.56;4933403;29;20051;-78
2022/03/17 00:04:43;;;;;;;11.07;6.50;;;;;;;-10.25;47.38;101270.38;4917852;29;20093;-78
2022/03/17 00:07:09;;;;;;;22.80;6.78;;;;;;;-10.29;46.88;101264.22;4917575;29;20488;-80
2022/03/17 00:09:35;;;;;;;19.92;7.25;;;;;;;-10.37;46.81;101255.34;4933377;29;20107;-78
2022/03/17 00:12:01;;;;;;;14.30;6.75;;;;;;;-10.31;46.88;101265.88;4933121;29;20051;-78
2022/03/17 00:14:28;;;;;;;13.45;6.53;;;;;;;-10.33;46.97;101263.25;4917327;29;20051;-78
2022/03/17 00:16:54;;;;;;;14.77;6.15;;;;;;;-10.37;46.84;101270.84;4933167;29;20052;-80
2022/03/17 00:19:19;;;;;;;14.45;7.65;;;;;;;-10.45;47.22;101277.44;4918613;29;20051;-80
2022/03/17 00:21:45;;;;;;;15.95;6.10;;;;;;;-10.62;47.78;101275.13;4918430;29;20080;-80
2022/03/17 00:24:11;;;;;;;15.32;6.97;;;;;;;-10.91;48.63;101275.75;4918861;29;20496;-81
2022/03/17 00:26:38;;;;;;;14.00;6.50;;;;;;;-10.94;48.37;101271.38;4918500;29;20047;-79
2022/03/17 00:29:07;;;;;;;16.75;7.70;;;;;;;-10.98;48.18;101260.84;4918215;29;20052;-78
2022/03/17 00:31:39;;;;;;;19.90;8.15;;;;;;;-10.97;48.35;101270.38;4933083;29;20080;-79
2022/03/17 00:34:07;;;;;;;22.73;8.65;;;;;;;-11.05;48.45;101262.34;4918464;29;20055;-78
2022/03/17 00:36:36;;;;;;;15.45;7.78;;;;;;;-11.06;49.00;101265.72;4916907;29;20046;-80
2022/03/17 00:39:07;;;;;;;16.02;7.97;;;;;;;-11.09;48.86;101260.47;4900785;29;20059;-80
2022/03/17 00:41:33;;;;;;;17.65;7.97;;;;;;;-11.12;49.05;101253.47;4917927;29;20048;-79
2022/03/17 00:43:59;;;;;;;20.30;8.82;;;;;;;-11.09;49.04;101258.75;4901469;29;20044;-79
2022/03/17 00:46:26;;;;;;;21.42;8.75;;;;;;;-11.13;48.93;101254.28;4916692;29;20086;-78
2022/03/17 00:48:52;;;;;;;27.63;9.40;;;;;;;-11.23;49.46;101252.19;4916992;29;20497;-80
2022/03/17 00:51:18;;;;;;;19.92;9.95;;;;;;;-11.12;49.29;101244.84;4918147;29;20039;-80
2022/03/17 00:53:44;;;;;;;15.45;6.65;;;;;;;-11.13;50.55;101261.13;4900943;29;20054;-80
2022/03/17 00:56:10;;;;;;;16.08;7.32;;;;;;;-11.14;49.96;101246.47;4932905;29;20075;-78
2022/03/17 00:58:36;;;;;;;16.00;7.88;;;;;;;-11.10;49.81;101254.38;4900989;29;20127;-78
2022/03/17 01:01:02;;;;;;;17.60;7.82;;;;;;;-11.06;49.38;101253.69;4932340;29;20515;-79
2022/03/17 01:03:28;;;;;;;17.92;6.80;;;;;;;-11.05;49.81;101244.25;4932392;29;20048;-79
2022/03/17 01:05:53;;;;;;;19.70;7.63;;;;;;;-10.98;49.47;101247.94;4916672;29;20048;-79
2022/03/17 01:08:19;;;;;;;17.55;7.35;;;;;;;-10.96;49.26;101254.91;4917972;29;20043;-81
2022/03/17 01:10:45;;;;;;;14.60;6.47;;;;;;;-10.90;49.13;101247.41;4932294;29;20141;-81
2022/03/17 01:13:11;;;;;;;23.02;7.18;;;;;;;-10.93;49.13;101225.75;4916830;29;20047;-81
2022/03/17 01:15:37;;;;;;;13.48;7.05;;;;;;;-10.86;49.50;101227.75;4917469;29;20054;-80
2022/03/17 01:18:03;;;;;;;17.77;7.18;;;;;;;-10.84;49.32;101229.53;4916390;29;20415;-80
2022/03/17 01:20:29;;;;;;;35.30;7.95;;;;;;;-10.85;49.05;101225.19;4933572;28;20051;-80
2022/03/17 01:22:56;;;;;;;16.90;7.10;;;;;;;-10.88;49.09;101217.31;4916024;29;20143;-80
2022/03/17 01:25:22;;;;;;;14.52;7.55;;;;;;;-10.82;49.26;101219.28;4917267;29;20048;-80
2022/03/17 01:27:48;;;;;;;19.42;7.15;;;;;;;-10.87;49.41;101215.63;4917293;29;20092;-80
2022/03/17 01:30:14;;;;;;;14.35;7.25;;;;;;;-10.94;49.76;101234.28;4917068;29;20052;-79
2022/03/17 01:32:43;;;;;;;28.13;7.80;;;;;;;-11.01;49.96;101235.78;4931888;29;20139;-80
2022/03/17 01:35:09;;;;;;;;;;;;;;;-11.11;50.32;101237.16;4932143;29;20050;-79
2022/03/17 01:37:44;;;;;;;12.38;6.10;;;;;;;-11.14;50.10;101234.44;4932745;29;19962;-80
2022/03/17 01:40:13;;;;;;;16.95;6.85;;;;;;;-11.19;50.22;101225.66;4920983;29;20047;-78
2022/03/17 01:42:39;;;;;;;15.30;6.72;;;;;;;-11.20;50.19;101225.59;4929265;29;20044;-79
2022/03/17 01:45:09;;;;;;;11.63;5.80;;;;;;;-11.17;49.93;101226.56;4922845;29;20423;-80
2022/03/17 01:47:41;;;;;;;10.88;5.63;;;;;;;-11.18;49.69;101219.66;4917050;29;20044;-79
2022/03/17 01:50:15;;;;;;;12.88;5.32;;;;;;;-11.29;50.53;101221.81;4916696;29;20044;-80
2022/03/17 01:52:48;;;;;;;12.52;6.03;;;;;;;-11.35;50.02;101221.63;4931720;29;20059;-81
2022/03/17 01:55:22;;;;;;;9.77;5.55;;;;;;;-11.40;50.25;101222.25;4929829;29;20067;-80
2022/03/17 01:57:49;;;;;;;11.43;5.50;;;;;;;-11.49;50.34;101227.94;4913706;29;20404;-80
2022/03/17 02:00:22;;;;;;;14.38;6.00;;;;;;;-11.56;50.75;101221.66;4914976;29;20487;-81
2022/03/17 02:02:52;;;;;;;11.77;5.55;;;;;;;-11.53;50.57;101221.78;4917182;29;20070;-77
2022/03/17 02:05:19;;;;;;;10.73;5.53;;;;;;;-11.56;50.53;101224.22;4916915;29;20052;-80
2022/03/17 02:07:47;;;;;;;15.57;6.32;;;;;;;-11.59;50.42;101218.94;4931263;29;20127;-79
2022/03/17 02:10:13;;;;;;;15.20;5.10;;;;;;;-11.59;50.78;101226.69;4917105;29;20072;-80
2022/03/17 02:15:26;;;;;;;10.02;6.07;;;;;;;-11.64;50.41;101215.31;4931223;29;20052;-76
2022/03/17 02:17:52;;;;;;;15.75;6.18;;;;;;;-11.62;50.76;101220.53;4915513;29;20044;-82
2022/03/17 02:20:18;;;;;;;14.35;6.80;;;;;;;-11.66;50.71;101213.50;4915421;29;20058;-80
2022/03/17 02:22:49;;;;;;;21.77;5.88;;;;;;;-11.68;50.64;101228.03;4915333;29;20522;-78
2022/03/17 02:25:35;;;;;;;17.77;5.55;;;;;;;-11.73;51.02;101230.44;4931418;29;20082;-80
2022/03/17 02:28:03;;;;;;;14.30;5.68;;;;;;;-11.73;51.05;101233.03;4932701;29;20048;-88
2022/03/17 02:30:31;;;;;;;12.77;6.40;;;;;;;-11.66;51.67;101224.69;4931569;29;20054;-82
2022/03/17 02:33:04;;;;;;;11.77;5.33;;;;;;;-11.64;51.30;101233.38;4915479;29;20496;-85
2022/03/17 02:35:32;;;;;;;47.10;9.20;;;;;;;-11.65;51.15;101226.47;4930650;29;20549;-80
2022/03/17 02:37:59;;;;;;;15.95;5.38;;;;;;;-11.60;51.05;101224.94;4914815;29;20055;-79
2022/03/17 02:40:25;;;;;;;11.18;5.45;;;;;;;-11.66;51.66;101222.09;4915072;29;20081;-78
2022/03/17 02:42:52;;;;;;;12.68;5.90;;;;;;;-11.61;51.04;101228.34;4914960;29;20052;-80
2022/03/17 02:45:18;;;;;;;14.30;6.90;;;;;;;-11.64;51.09;101225.63;4930602;29;20059;-80
2022/03/17 02:47:45;;;;;;;15.13;6.13;;;;;;;-11.57;51.17;101230.22;4931053;29;20044;-83
2022/03/17 02:50:14;;;;;;;12.45;6.25;;;;;;;-11.58;51.43;101232.75;4914872;29;20044;-80
2022/03/17 02:52:40;;;;;;;18.45;6.72;;;;;;;-11.63;51.40;101229.97;4930858;29;20160;-81
2022/03/17 02:55:08;;;;;;;23.05;7.38;;;;;;;-11.47;51.05;101230.56;4899618;29;20088;-87
2022/03/17 02:57:34;;;;;;;20.67;6.90;;;;;;;-11.45;50.65;101223.78;4893028;29;20048;-80
2022/03/17 03:00:00;;;;;;;10.77;5.65;;;;;;;-11.39;50.61;101234.34;4931180;29;20088;-79
2022/03/17 03:02:26;;;;;;;10.68;5.75;;;;;;;-11.31;50.46;101235.53;4919472;29;20047;-78
2022/03/17 03:04:52;;;;;;;17.70;6.25;;;;;;;-11.25;50.17;101228.00;4942182;29;20052;-79
2022/03/17 03:07:18;;;;;;;16.27;6.68;;;;;;;-11.25;50.28;101230.56;4934147;29;20489;-80
2022/03/17 03:09:44;;;;;;;12.50;5.68;;;;;;;-11.21;50.25;101229.88;4919768;29;20040;-79
2022/03/17 03:12:10;;;;;;;10.98;5.22;;;;;;;-11.21;49.80;101234.16;4920552;29;20059;-83
2022/03/17 03:14:36;;;;;;;17.27;6.28;;;;;;;-11.16;49.81;101238.69;4919481;29;20048;-78
2022/03/17 03:17:03;;;;;;;17.05;5.28;;;;;;;-11.16;49.72;101238.69;4920534;29;20097;-82
2022/03/17 03:19:29;;;;;;;12.50;5.70;;;;;;;-11.18;50.01;101240.31;4902747;29;20075;-80
2022/03/17 03:21:54;;;;;;;23.20;6.28;;;;;;;-11.19;50.16;101248.88;4920158;29;20068;-85
2022/03/17 03:24:20;;;;;;;13.82;5.45;;;;;;;-11.08;50.22;101242.44;4934033;29;20583;-90
2022/03/17 03:26:46;;;;;;;13.82;6.70;;;;;;;-11.08;50.13;101242.44;4934197;29;20048;-78
2022/03/17 03:31:39;;;;;;;11.57;6.53;;;;;;;-11.06;50.29;101258.84;4919722;29;20043;-80
2022/03/17 03:34:04;;;;;;;20.30;7.70;;;;;;;-11.11;50.54;101250.06;4927619;29;20055;-81
2022/03/17 03:39:14;;;;;;;11.32;6.68;;;;;;;-11.27;50.87;101239.97;4933626;29;20058;-79
2022/03/17 03:41:40;;;;;;;13.68;7.72;;;;;;;-11.31;51.07;101258.75;4933709;29;20036;-80
2022/03/17 03:44:06;;;;;;;20.15;6.53;;;;;;;-11.35;51.39;101267.19;4917598;29;20123;-82
2022/03/17 03:46:32;;;;;;;10.23;5.28;;;;;;;-11.37;51.23;101266.25;4917702;29;20496;-81
2022/03/17 03:48:58;;;;;;;13.20;7.03;;;;;;;-11.31;51.07;101274.25;4886697;29;20047;-89
2022/03/17 03:51:23;;;;;;;11.00;5.57;;;;;;;-11.40;51.65;101274.72;4933532;29;20512;-84
2022/03/17 03:56:34;;;;;;;21.90;7.53;;;;;;;-11.32;52.04;101280.19;4919111;29;20048;-85
2022/03/17 03:59:05;;;;;;;16.90;8.70;;;;;;;-11.40;52.19;101266.13;4933589;29;20111;-81
2022/03/17 04:01:32;;;;;;;21.70;8.10;;;;;;;-11.23;52.34;101262.50;4917864;29;20048;-83
2022/03/17 04:04:01;;;;;;;17.83;8.93;;;;;;;-11.27;52.00;101269.25;4933560;29;20044;-82
2022/03/17 04:06:27;;;;;;;16.55;8.55;;;;;;;-11.11;52.11;101262.09;4917462;29;20052;-82
2022/03/17 04:08:53;;;;;;;23.17;10.80;;;;;;;-10.97;51.82;101271.25;4917226;29;20424;-84
2022/03/17 04:11:19;;;;;;;25.13;11.55;;;;;;;-10.85;51.87;101266.53;4933174;29;20052;-81
2022/03/17 04:13:45;;;;;;;21.98;10.60;;;;;;;-10.63;51.25;101281.13;4917855;29;20488;-84
2022/03/17 04:16:11;;;;;;;32.88;10.80;;;;;;;-10.64;50.89;101274.19;4932797;29;20108;-85
2022/03/17 04:18:38;;;;;;;39.40;12.88;;;;;;;-10.51;50.98;101275.50;4917720;29;20127;-82
2022/03/17 04:21:04;;;;;;;31.20;12.07;;;;;;;-10.37;50.39;101271.72;4916494;29;20060;-82
2022/03/17 04:23:29;;;;;;;25.17;12.43;;;;;;;-10.21;50.35;101273.09;4933075;29;20051;-81
2022/03/17 04:25:55;;;;;;;28.70;13.38;;;;;;;-10.15;50.00;101270.72;4932787;29;20048;-81
2022/03/17 04:28:21;;;;;;;21.70;10.95;;;;;;;-10.33;50.14;101270.13;4917997;29;20420;-82
2022/03/17 04:30:47;;;;;;;39.67;14.07;;;;;;;-10.12;50.27;101263.06;4918311;29;20043;-82
2022/03/17 04:33:13;;;;;;;41.22;12.25;;;;;;;-9.87;49.61;101258.72;4902496;29;20051;-80
2022/03/17 04:35:39;;;;;;;26.38;13.15;;;;;;;-9.60;49.47;101264.78;4934036;29;20115;-83
2022/03/17 04:38:04;;;;;;;26.45;11.88;;;;;;;-9.37;48.62;101257.75;4921928;29;20048;-82
2022/03/17 04:40:30;;;;;;;26.35;11.48;;;;;;;-9.37;48.01;101267.22;4919517;29;20523;-86
2022/03/17 04:42:56;;;;;;;23.27;10.00;;;;;;;-9.52;48.37;101269.31;4918239;29;20047;-82
2022/03/17 04:45:22;;;;;;;22.20;10.25;;;;;;;-9.68;48.68;101279.19;4901446;29;20102;-83
2022/03/17 04:47:48;;;;;;;37.90;10.55;;;;;;;-9.66;48.80;101279.25;4916586;29;20393;-82
2022/03/17 04:50:14;;;;;;;27.08;10.05;;;;;;;-9.59;48.41;101270.84;4917812;29;20138;-80
2022/03/17 04:55:24;;;;;;;22.88;9.13;;;;;;;-9.65;47.82;101270.66;4919520;29;20496;-85
2022/03/17 04:57:51;;;;;;;18.60;9.77;;;;;;;-9.64;47.42;101268.09;4933840;29;20079;-82
2022/03/17 05:00:17;;;;;;;23.08;10.27;;;;;;;-9.79;47.78;101278.84;4925348;29;20044;-82
2022/03/17 05:02:43;;;;;;;25.70;8.55;;;;;;;-9.80;48.12;101278.78;4910595;29;20054;-82
2022/03/17 05:05:09;;;;;;;35.00;11.30;;;;;;;-9.55;48.20;101281.38;4928074;29;20086;-82
2022/03/17 05:07:35;;;;;;;23.95;12.60;;;;;;;-9.39;48.08;101277.53;4918317;29;20592;-82
2022/03/17 05:10:01;;;;;;;25.15;11.88;;;;;;;-9.13;48.47;101273.19;4918173;29;20131;-80
2022/03/17 05:12:29;;;;;;;28.17;11.18;;;;;;;-8.81;48.31;101275.84;4885725;29;20071;-83
2022/03/17 05:14:55;;;;;;;60.13;10.93;;;;;;;-8.62;47.60;101265.16;4916630;29;20043;-81
2022/03/17 05:17:21;;;;;;;15.52;7.20;;;;;;;-8.69;47.39;101262.34;4916484;29;20097;-83
2022/03/17 05:19:47;;;;;;;22.17;8.77;;;;;;;-8.67;46.96;101261.56;4917320;29;20072;-83
2022/03/17 05:22:13;;;;;;;16.08;9.23;;;;;;;-8.49;46.92;101268.13;4915843;29;20063;-82
2022/03/17 05:24:39;;;;;;;13.75;7.25;;;;;;;-8.36;47.00;101275.34;4938474;29;20047;-83
2022/03/17 05:27:04;;;;;;;21.17;7.45;;;;;;;-8.28;46.55;101262.59;4946913;29;20075;-82
2022/03/17 05:29:30;;;;;;;23.85;8.60;;;;;;;-8.13;46.25;101269.06;4942726;29;20045;-83
2022/03/17 05:31:56;;;;;;;16.35;6.70;;;;;;;-7.94;46.23;101270.41;4936014;29;20050;-84
2022/03/17 05:34:22;;;;;;;11.63;6.60;;;;;;;-7.67;45.55;101266.75;4951463;29;20044;-82
2022/03/17 05:36:48;;;;;;;9.77;4.75;;;;;;;-7.50;45.20;101267.19;4934922;29;20051;-82
2022/03/17 05:39:14;;;;;;;14.32;5.60;;;;;;;-7.31;44.39;101258.97;4936213;29;20051;-83
2022/03/17 05:41:39;;;;;;;22.45;5.88;;;;;;;-7.25;43.97;101258.25;4935193;29;20039;-83
2022/03/17 05:44:07;;;;;;;18.60;6.68;;;;;;;-7.23;43.61;101254.81;4950859;29;20050;-82
2022/03/17 05:46:33;;;;;;;15.25;6.18;;;;;;;-6.97;43.67;101250.22;4936114;29;20047;-83
2022/03/17 05:49:00;;;;;;;15.68;6.28;;;;;;;-6.99;43.63;101245.84;4934755;29;20086;-83
2022/03/17 05:51:25;;;;;;;10.50;5.68;;;;;;;-6.79;43.39;101241.94;4935845;29;20491;-82
2022/03/17 05:53:51;;;;;;;12.88;5.78;;;;;;;-6.70;43.22;101239.50;4935752;29;20203;-82
2022/03/17 05:56:17;;;;;;;15.90;5.85;;;;;;;-6.74;42.29;101235.09;4935967;29;20066;-81
2022/03/17 05:58:43;;;;;;;21.08;5.95;;;;;;;-6.35;42.83;101239.34;4936192;29;20142;-83
2022/03/17 06:01:09;;;;;;;17.60;6.80;;;;;;;-6.07;42.42;101238.09;4950491;29;20047;-83
2022/03/17 06:03:35;;;;;;;18.10;6.43;;;;;;;-5.76;41.87;101236.88;4934274;29;20046;-82
2022/03/17 06:06:00;;;;;;;10.55;6.07;;;;;;;-5.68;41.22;101235.28;4935665;29;20049;-82
2022/03/17 06:08:27;;;;;;;19.67;6.63;;;;;;;-5.51;41.04;101219.03;4935854;29;20052;-82
2022/03/17 06:10:53;;;;;;;26.08;6.35;;;;;;;-5.57;40.60;101229.34;4950914;29;20479;-83
2022/03/17 06:13:19;;;;;;;18.20;7.00;;;;;;;-5.56;41.14;101226.78;4936104;29;20127;-82
2022/03/17 06:15:44;;;;;;;18.52;7.20;;;;;;;-5.36;40.67;101232.28;4934362;29;20453;-81
2022/03/17 06:18:11;;;;;;;13.27;6.80;;;;;;;-5.20;40.43;101236.00;4934726;29;20043;-82
2022/03/17 06:20:38;;;;;;;11.63;6.65;;;;;;;-5.30;40.64;101240.22;4934295;29;20071;-81
2022/03/17 06:23:05;;;;;;;19.75;6.28;;;;;;;-5.16;40.21;101233.44;4950388;29;20067;-82
2022/03/17 06:25:33;;;;;;;23.45;6.75;;;;;;;-5.09;40.09;101229.19;4934427;29;20051;-81
2022/03/17 06:27:59;;;;;;;16.95;6.53;;;;;;;-4.80;39.67;101232.22;4935617;29;20450;-82
2022/03/17 06:30:28;;;;;;;14.93;6.40;;;;;;;-4.73;39.69;101223.59;4934333;29;20138;-81
2022/03/17 06:32:54;;;;;;;12.88;6.32;;;;;;;-4.80;39.04;101220.91;4935566;29;20510;-82
2022/03/17 06:35:22;;;;;;;10.88;5.70;;;;;;;-4.90;39.02;101217.28;4934341;29;20036;-82
2022/03/17 06:37:52;;;;;;;12.25;5.45;;;;;;;-5.06;38.98;101228.38;4953589;29;20052;-81
2022/03/17 06:40:19;;;;;;;17.02;6.10;;;;;;;-5.13;39.48;101227.41;4939928;29;20423;-81
2022/03/17 06:42:46;;;;;;;23.42;8.52;;;;;;;-5.02;39.68;101224.97;4938957;29;20141;-83
2022/03/17 06:45:13;;;;;;;14.88;5.78;;;;;;;-5.09;39.30;101212.69;4953957;29;20091;-83
2022/03/17 06:47:39;;;;;;;16.02;7.78;;;;;;;-5.20;40.44;101213.41;4939114;29;20051;-83
2022/03/17 06:50:07;;;;;;;18.58;5.55;;;;;;;-5.55;39.96;101218.09;4937728;29;20067;-80
2022/03/17 06:52:33;;;;;;;14.85;6.80;;;;;;;-5.26;40.82;101217.69;4953401;29;20043;-80
2022/03/17 06:54:59;;;;;;;16.20;6.25;;;;;;;-5.21;39.80;101206.44;4939169;29;20052;-82
2022/03/17 06:57:25;;;;;;;11.57;6.93;;;;;;;-5.33;39.78;101214.09;4953570;29;20040;-80
2022/03/17 06:59:51;;;;;;;17.45;7.38;;;;;;;-5.67;40.33;101202.31;4937601;29;20059;-81
2022/03/17 07:02:18;;;;;;;12.43;4.85;;;;;;;-5.64;40.23;101203.22;4938718;29;20503;-82
2022/03/17 07:04:44;;;;;;;10.68;6.28;;;;;;;-5.66;40.29;101210.13;4938212;29;20135;-81
2022/03/17 07:07:10;;;;;;;14.93;7.57;;;;;;;-5.37;40.30;101204.50;4953562;29;20063;-82
2022/03/17 07:09:37;;;;;;;14.60;5.82;;;;;;;-5.35;40.18;101207.09;4938741;29;20098;-82
2022/03/17 07:12:04;;;;;;;26.67;6.28;;;;;;;-5.27;40.58;101206.34;4938838;29;20040;-82
2022/03/17 07:14:30;;;;;;;10.25;5.93;;;;;;;-5.13;39.54;101202.22;4937591;29;20399;-82
2022/03/17 07:16:56;;;;;;;8.80;5.47;;;;;;;-5.13;39.70;101202.22;4936972;29;20043;-83
2022/03/17 07:19:21;;;;;;;13.20;6.13;;;;;;;-5.24;40.02;101193.38;4937256;29;20055;-82
2022/03/17 07:21:49;;;;;;;16.40;6.13;;;;;;;-5.14;40.06;101195.25;4930095;29;20147;-81
2022/03/17 07:24:16;;;;;;;10.35;5.50;;;;;;;-5.27;40.01;101188.09;4918530;29;20115;-81
2022/03/17 07:26:41;;;;;;;10.10;5.25;;;;;;;-5.27;40.31;101195.06;4902843;29;20048;-81
2022/03/17 07:29:08;;;;;;;19.27;6.25;;;;;;;-5.43;40.62;101191.34;4918631;29;20071;-81
2022/03/17 07:31:34;;;;;;;22.00;5.63;;;;;;;-5.42;40.98;101190.50;4919245;29;20051;-82
2022/03/17 07:34:01;;;;;;;12.27;5.85;;;;;;;-5.24;40.91;101172.50;4919059;29;20043;-82
2022/03/17 07:36:27;;;;;;;10.15;6.18;;;;;;;-4.98;40.09;101185.03;4902330;29;20059;-83
2022/03/17 07:38:54;;;;;;;8.77;5.90;;;;;;;-5.11;39.96;101178.78;4918002;29;20381;-82
2022/03/17 07:41:21;;;;;;;18.63;7.32;;;;;;;-4.96;40.52;101180.72;4917794;29;20048;-81
2022/03/17 07:43:47;;;;;;;21.05;6.93;;;;;;;-5.07;40.07;101180.56;4919069;29;20056;-82
2022/03/17 07:46:50;;;;;;;16.25;6.55;;;;;;;-5.04;40.19;101158.84;4902082;29;20066;-80
2022/03/17 07:49:29;;;;;;;15.30;6.82;;;;;;;-4.79;40.10;101168.72;4903469;29;20043;-82
2022/03/17 07:51:55;;;;;;;19.63;7.60;;;;;;;-4.23;40.22;101164.97;4920293;29;20416;-81
2022/03/17 07:54:21;;;;;;;14.45;7.45;;;;;;;-3.94;38.95;101153.03;4934941;29;20047;-82
2022/03/17 07:56:47;;;;;;;17.23;7.07;;;;;;;-3.79;39.03;101149.69;4934142;29;20044;-81
2022/03/17 07:59:16;;;;;;;17.65;6.40;;;;;;;-3.75;38.64;101150.56;4919361;29;20052;-81
2022/03/17 08:01:42;;;;;;;14.60;6.25;;;;;;;-3.61;38.37;101148.94;4933596;29;20135;-82
2022/03/17 08:04:08;;;;;;;15.30;6.40;;;;;;;-3.14;38.49;101150.94;4933376;29;20066;-82
2022/03/17 08:06:35;;;;;;;16.30;7.63;;;;;;;-2.68;38.13;101140.63;4918627;29;20502;-83
2022/03/17 08:09:01;;;;;;;16.02;6.78;;;;;;;-2.14;36.73;101139.00;4918712;29;20062;-81
2022/03/17 08:11:27;;;;;;;13.57;6.60;;;;;;;-1.95;36.44;101139.88;4918591;29;20040;-81
2022/03/17 08:13:54;;;;;;;13.45;7.03;;;;;;;-1.90;36.20;101138.13;4918653;29;20052;-81
2022/03/17 08:16:20;;;;;;;15.55;5.90;;;;;;;-2.06;35.58;101132.00;4917317;29;20174;-83
2022/03/17 08:18:46;;;;;;;11.45;6.45;;;;;;;-2.14;35.86;101122.38;4932675;29;20507;-81
2022/03/17 08:21:13;;;;;;;14.52;6.75;;;;;;;-1.88;36.13;101115.41;4936208;29;20063;-82
2022/03/17 08:23:40;;;;;;;12.60;5.70;;;;;;;-1.74;35.06;101103.13;4935992;29;20048;-83
2022/03/17 08:26:06;;;;;;;11.48;5.90;;;;;;;-1.65;35.17;101118.00;4936331;29;20530;-82
2022/03/17 08:28:33;;;;;;;12.85;6.55;;;;;;;-1.58;35.04;101098.75;4952230;29;20067;-81
2022/03/17 08:30:59;;;;;;;9.57;5.32;;;;;;;-1.46;34.86;101108.34;4937897;29;20111;-82
2022/03/17 08:33:25;;;;;;;12.35;6.72;;;;;;;-1.64;35.30;101105.75;4937691;29;20056;-82
2022/03/17 08:35:52;;;;;;;13.90;6.55;;;;;;;-1.43;35.03;101097.81;4936342;29;20130;-81
2022/03/17 08:38:18;;;;;;;13.57;6.22;;;;;;;-1.08;34.99;101107.34;4937232;29;20407;-82
2022/03/17 08:40:44;;;;;;;12.02;6.53;;;;;;;-1.23;34.43;101090.78;4935516;29;20091;-82
2022/03/17 08:43:12;;;;;;;10.43;6.28;;;;;;;-0.95;34.35;101093.25;4920004;29;20044;-83
2022/03/17 08:51:12;;;;;;;9.13;6.32;;;;;;;-0.50;34.49;101083.38;4952409;28;20138;-83
2022/03/17 08:53:38;;;;;;;5.63;4.28;;;;;;;-0.45;33.17;101071.09;4936058;29;20512;-82
2022/03/17 08:56:05;;;;;;;14.32;5.10;;;;;;;0.01;33.70;101069.84;4935389;29;20112;-82
2022/03/17 08:58:31;;;;;;;13.65;4.90;;;;;;;-0.01;32.40;101056.69;4936747;29;20517;-84
2022/03/17 09:01:00;;;;;;;7.25;5.18;;;;;;;-0.43;32.68;101063.19;4935271;29;20043;-85
2022/03/17 09:03:30;;;;;;;7.70;5.43;;;;;;;-0.35;33.22;101064.88;4951524;29;20522;-84
2022/03/17 09:05:59;;;;;;;8.95;4.90;;;;;;;-0.32;33.70;101051.72;4919742;29;20058;-82
2022/03/17 09:08:27;;;;;;;7.88;4.80;;;;;;;-0.25;33.45;101058.66;4951344;28;20102;-83
2022/03/17 09:10:55;;;;;;;12.75;4.82;;;;;;;-0.11;33.63;101044.53;4936571;29;20074;-84
2022/03/17 09:13:23;;;;;;;10.93;5.45;;;;;;;-0.08;33.01;101039.25;4951462;29;20071;-83
2022/03/17 09:15:49;;;;;;;10.00;5.20;;;;;;;-0.05;32.66;101047.97;4951257;29;20051;-83
2022/03/17 09:18:15;;;;;;;8.65;4.60;;;;;;;-0.22;32.67;101051.66;4937472;29;20055;-83
2022/03/17 09:20:41;;;;;;;10.20;5.10;;;;;;;-0.20;32.63;101049.88;4941219;29;20059;-84
2022/03/17 09:23:08;;;;;;;11.00;4.97;;;;;;;-0.31;32.61;101042.94;4952738;28;20511;-82
2022/03/17 09:25:34;;;;;;;7.85;4.75;;;;;;;0.05;32.42;101058.41;4943567;29;20039;-83
2022/03/17 09:28:01;;;;;;;8.27;4.50;;;;;;;-0.14;32.76;101039.31;4945538;29;20040;-81
2022/03/17 09:30:27;;;;;;;8.82;4.90;;;;;;;0.16;33.26;101043.41;4944278;29;20139;-83
2022/03/17 09:32:54;;;;;;;8.18;4.78;;;;;;;-0.14;32.45;101023.53;4937543;29;20579;-85
2022/03/17 09:35:22;;;;;;;14.10;5.00;;;;;;;-0.12;31.92;101016.50;4919863;29;20412;-83
2022/03/17 09:37:50;;;;;;;9.10;4.40;;;;;;;0.04;32.01;101020.75;4950818;29;20396;-82
2022/03/17 09:40:18;;;;;;;10.77;4.97;;;;;;;-0.28;32.03;101021.91;4934768;29;20051;-84
2022/03/17 09:42:44;;;;;;;10.82;4.85;;;;;;;-0.14;31.58;101007.78;4950706;29;20555;-83
2022/03/17 09:45:11;;;;;;;12.75;4.75;;;;;;;-0.55;32.30;101009.00;4934840;29;20047;-83
2022/03/17 09:47:40;;;;;;;12.43;4.18;;;;;;;-0.47;32.98;101009.81;4934872;29;20043;-83
2022/03/17 09:50:09;;;;;;;9.75;6.05;;;;;;;-0.16;33.07;101006.91;4950847;28;20566;-82
2022/03/17 09:52:37;;;;;;;12.03;5.60;;;;;;;-0.02;32.79;100991.88;4935767;29;20048;-82
2022/03/17 09:55:04;;;;;;;6.57;4.28;;;;;;;0.26;32.31;100992.44;4950658;29;20315;-82
2022/03/17 09:57:31;;;;;;;8.63;5.18;;;;;;;0.48;32.10;101001.81;4935781;29;20563;-83
2022/03/17 09:59:58;;;;;;;7.97;5.15;;;;;;;0.57;31.71;100994.72;4934769;29;20047;-82
2022/03/17 10:02:25;;;;;;;16.85;5.20;;;;;;;0.77;31.75;100989.19;4935808;29;20059;-83
2022/03/17 10:04:52;;;;;;;9.65;4.75;;;;;;;0.52;31.05;100980.72;4950688;29;20044;-83
2022/03/17 10:07:22;;;;;;;7.43;4.57;;;;;;;0.95;31.54;100983.66;4966565;28;20052;-84
2022/03/17 10:09:49;;;;;;;10.90;4.88;;;;;;;0.94;31.26;100976.63;4934547;29;20048;-83
2022/03/17 10:12:20;;;;;;;10.23;5.80;;;;;;;1.13;30.95;100988.66;4950191;29;20047;-85
2022/03/17 10:14:52;;;;;;;7.95;4.22;;;;;;;1.38;30.59;100973.31;4934472;29;20050;-84
2022/03/17 10:17:41;;;;;;;8.70;4.75;;;;;;;1.29;30.96;100977.88;4950357;29;20046;-83
2022/03/17 10:20:28;;;;;;;11.45;5.30;;;;;;;1.11;30.43;100979.03;4936115;29;20044;-83
2022/03/17 10:22:54;;;;;;;14.77;5.43;;;;;;;1.42;30.57;100974.16;4950071;29;20151;-83
2022/03/17 10:25:26;;;;;;;7.53;4.65;;;;;;;1.87;30.15;100968.97;4934071;29;20054;-83
2022/03/17 10:27:56;;;;;;;9.02;5.00;;;;;;;2.07;29.15;100969.50;4950604;29;20087;-82
2022/03/17 10:30:24;;;;;;;8.68;4.97;;;;;;;2.35;29.36;100961.88;4950189;29;20504;-84
2022/03/17 10:33:01;;;;;;;11.75;5.22;;;;;;;2.18;29.08;100972.78;4935985;29;20055;-84
2022/03/17 10:35:35;;;;;;;11.77;5.57;;;;;;;1.94;29.41;100963.56;4950766;29;20387;-87
2022/03/17 10:38:27;;;;;;;10.52;5.70;;;;;;;2.16;28.05;100961.38;4934409;29;20055;-84
2022/03/17 10:41:02;;;;;;;10.13;5.22;;;;;;;2.47;28.62;100963.41;4950095;29;20488;-84
2022/03/17 10:43:31;;;;;;;8.70;5.40;;;;;;;2.68;28.32;100968.22;4935621;29;20412;-81
2022/03/17 10:46:12;;;;;;;8.98;4.93;;;;;;;2.84;28.03;100967.88;4933973;29;20510;-86
2022/03/17 10:49:02;;;;;;;9.43;4.70;;;;;;;2.95;27.80;100959.72;4949970;29;20044;-81
2022/03/17 10:51:41;;;;;;;11.43;5.65;;;;;;;3.09;28.47;100942.66;4950121;28;20147;-80
2022/03/17 10:54:15;;;;;;;10.02;5.75;;;;;;;3.29;27.86;100949.22;4950314;29;20504;-82
2022/03/17 10:56:41;;;;;;;9.27;5.38;;;;;;;3.57;27.63;100944.09;4935214;29;20079;-82
2022/03/17 10:59:08;;;;;;;8.40;5.20;;;;;;;3.71;27.04;100941.97;4935798;29;20135;-81
2022/03/17 11:01:36;;;;;;;6.75;4.40;;;;;;;3.80;26.88;100940.84;4950059;29;20062;-82
2022/03/17 11:04:04;;;;;;;8.17;5.43;;;;;;;3.78;26.54;100942.69;4949804;29;20043;-83
2022/03/17 11:06:32;;;;;;;7.45;4.45;;;;;;;3.85;26.51;100938.97;4950965;29;20106;-82
2022/03/17 11:09:01;;;;;;;14.70;6.78;;;;;;;3.66;26.32;100935.97;4949823;29;20062;-84
2022/03/17 11:11:31;;;;;;;;;;;;;;;3.45;26.37;100933.84;4934251;29;20043;-83
2022/03/17 11:14:00;;;;;;;11.10;6.10;;;;;;;3.41;25.88;100930.41;4949904;29;19934;-82
2022/03/17 11:16:35;;;;;;;9.45;5.85;;;;;;;3.12;26.99;100932.03;4950239;29;20517;-82
2022/03/17 11:19:03;;;;;;;11.10;6.13;;;;;;;3.06;26.45;100918.94;4949982;29;20051;-83
2022/03/17 11:21:31;;;;;;;10.93;5.80;;;;;;;3.28;26.72;100923.72;4928262;29;20060;-83
2022/03/17 11:24:04;;;;;;;11.73;5.00;;;;;;;3.26;26.24;100930.81;4918257;29;20063;-82
2022/03/17 11:26:44;;;;;;;11.55;5.43;;;;;;;3.74;26.86;100935.75;4934377;29;20047;-84
2022/03/17 11:29:18;;;;;;;10.15;5.70;;;;;;;4.05;26.64;100926.06;4902580;29;20083;-83
2022/03/17 11:31:56;;;;;;;9.45;5.25;;;;;;;4.24;25.38;100930.84;4918217;29;20048;-82
2022/03/17 11:34:39;;;;;;;10.80;5.85;;;;;;;3.92;25.51;100940.56;4902094;29;20103;-83
2022/03/17 11:37:15;;;;;;;9.20;4.85;;;;;;;3.88;25.94;100934.47;4919328;29;20052;-84
2022/03/17 11:40:11;;;;;;;10.43;5.97;;;;;;;4.21;25.71;100921.19;4917914;29;20469;-84